sensor_id;sensor_type;location;lat;lon;timestamp;temperature;humidity
80824;SHT35;70538;59.122;37.876;2023-06-14T00:00:46;17.42;50.16
80824;SHT35;70538;59.122;37.876;2023-06-14T00:03:16;17.43;50.06
80824;SHT35;70538;59.122;37.876;2023-06-14T00:05:49;17.40;50.16
80824;SHT35;70538;59.122;37.876;2023-06-14T00:08:17;17.37;50.05
80824;SHT35;70538;59.122;37.876;2023-06-14T00:10:47;17.40;49.94
80824;SHT35;70538;59.122;37.876;2023-06-14T00:13:15;17.37;49.90
80824;SHT35;70538;59.122;37.876;2023-06-14T00:15:45;17.40;49.82
80824;SHT35;70538;59.122;37.876;2023-06-14T00:18:15;17.45;49.78
80824;SHT35;70538;59.122;37.876;2023-06-14T00:20:44;17.47;49.84
80824;SHT35;70538;59.122;37.876;2023-06-14T00:23:16;17.49;50.06
80824;SHT35;70538;59.122;37.876;2023-06-14T00:25:45;17.50;50.21
80824;SHT35;70538;59.122;37.876;2023-06-14T00:28:16;17.54;50.32
80824;SHT35;70538;59.122;37.876;2023-06-14T00:30:44;17.56;50.48
80824;SHT35;70538;59.122;37.876;2023-06-14T00:33:14;17.59;50.41
80824;SHT35;70538;59.122;37.876;2023-06-14T00:35:43;17.60;50.31
80824;SHT35;70538;59.122;37.876;2023-06-14T00:38:11;17.60;50.05
80824;SHT35;70538;59.122;37.876;2023-06-14T00:40:40;17.59;50.39
80824;SHT35;70538;59.122;37.876;2023-06-14T00:43:09;17.56;50.90
80824;SHT35;70538;59.122;37.876;2023-06-14T00:45:37;17.54;51.28
80824;SHT35;70538;59.122;37.876;2023-06-14T00:48:06;17.54;51.44
80824;SHT35;70538;59.122;37.876;2023-06-14T00:50:36;17.53;51.57
80824;SHT35;70538;59.122;37.876;2023-06-14T00:53:06;17.51;51.40
80824;SHT35;70538;59.122;37.876;2023-06-14T00:55:37;17.54;50.87
80824;SHT35;70538;59.122;37.876;2023-06-14T00:58:06;17.53;49.96
80824;SHT35;70538;59.122;37.876;2023-06-14T01:00:34;17.51;49.65
80824;SHT35;70538;59.122;37.876;2023-06-14T01:03:03;17.49;49.15
80824;SHT35;70538;59.122;37.876;2023-06-14T01:05:31;17.47;48.80
80824;SHT35;70538;59.122;37.876;2023-06-14T01:08:28;17.40;48.88
80824;SHT35;70538;59.122;37.876;2023-06-14T01:11:07;17.40;49.03
80824;SHT35;70538;59.122;37.876;2023-06-14T01:13:39;17.36;49.34
80824;SHT35;70538;59.122;37.876;2023-06-14T01:16:09;17.32;49.24
80824;SHT35;70538;59.122;37.876;2023-06-14T01:18:38;17.28;49.13
80824;SHT35;70538;59.122;37.876;2023-06-14T01:21:23;17.26;48.00
80824;SHT35;70538;59.122;37.876;2023-06-14T01:23:54;17.19;47.90
80824;SHT35;70538;59.122;37.876;2023-06-14T01:26:26;17.20;47.83
80824;SHT35;70538;59.122;37.876;2023-06-14T01:28:57;17.18;47.78
80824;SHT35;70538;59.122;37.876;2023-06-14T01:31:26;17.16;47.73
80824;SHT35;70538;59.122;37.876;2023-06-14T01:33:55;17.11;47.81
80824;SHT35;70538;59.122;37.876;2023-06-14T01:36:26;17.05;47.68
80824;SHT35;70538;59.122;37.876;2023-06-14T01:38:59;17.02;47.55
80824;SHT35;70538;59.122;37.876;2023-06-14T01:41:28;17.00;47.62
80824;SHT35;70538;59.122;37.876;2023-06-14T01:43:59;17.01;47.71
80824;SHT35;70538;59.122;37.876;2023-06-14T01:46:28;16.98;47.78
80824;SHT35;70538;59.122;37.876;2023-06-14T01:49:00;16.92;47.81
80824;SHT35;70538;59.122;37.876;2023-06-14T01:51:28;16.82;48.00
80824;SHT35;70538;59.122;37.876;2023-06-14T01:53:59;16.80;48.22
80824;SHT35;70538;59.122;37.876;2023-06-14T01:56:28;16.80;48.39
80824;SHT35;70538;59.122;37.876;2023-06-14T01:58:57;16.77;48.39
80824;SHT35;70538;59.122;37.876;2023-06-14T02:01:26;16.77;48.56
80824;SHT35;70538;59.122;37.876;2023-06-14T02:03:55;16.80;48.67
80824;SHT35;70538;59.122;37.876;2023-06-14T02:06:24;16.77;48.83
80824;SHT35;70538;59.122;37.876;2023-06-14T02:08:54;16.73;49.04
80824;SHT35;70538;59.122;37.876;2023-06-14T02:11:23;16.70;49.17
80824;SHT35;70538;59.122;37.876;2023-06-14T02:13:52;16.74;49.30
80824;SHT35;70538;59.122;37.876;2023-06-14T02:16:23;16.80;49.18
80824;SHT35;70538;59.122;37.876;2023-06-14T02:18:55;16.84;48.97
80824;SHT35;70538;59.122;37.876;2023-06-14T02:21:25;16.91;48.70
80824;SHT35;70538;59.122;37.876;2023-06-14T02:23:53;16.98;48.41
80824;SHT35;70538;59.122;37.876;2023-06-14T02:26:21;17.00;48.12
80824;SHT35;70538;59.122;37.876;2023-06-14T02:28:50;17.04;48.03
80824;SHT35;70538;59.122;37.876;2023-06-14T02:31:19;17.07;48.07
80824;SHT35;70538;59.122;37.876;2023-06-14T02:33:47;17.07;48.24
80824;SHT35;70538;59.122;37.876;2023-06-14T02:36:15;17.15;48.31
80824;SHT35;70538;59.122;37.876;2023-06-14T02:38:43;17.15;48.32
80824;SHT35;70538;59.122;37.876;2023-06-14T02:41:11;17.18;48.33
80824;SHT35;70538;59.122;37.876;2023-06-14T02:43:39;17.22;48.43
80824;SHT35;70538;59.122;37.876;2023-06-14T02:46:08;17.23;48.46
80824;SHT35;70538;59.122;37.876;2023-06-14T02:48:36;17.28;48.61
80824;SHT35;70538;59.122;37.876;2023-06-14T02:51:04;17.37;48.54
80824;SHT35;70538;59.122;37.876;2023-06-14T02:53:34;17.51;48.52
80824;SHT35;70538;59.122;37.876;2023-06-14T02:56:03;17.64;48.37
80824;SHT35;70538;59.122;37.876;2023-06-14T02:58:35;17.77;48.16
80824;SHT35;70538;59.122;37.876;2023-06-14T03:01:07;17.90;47.89
80824;SHT35;70538;59.122;37.876;2023-06-14T03:03:35;18.00;47.77
80824;SHT35;70538;59.122;37.876;2023-06-14T03:06:04;18.11;47.64
80824;SHT35;70538;59.122;37.876;2023-06-14T03:08:32;18.18;47.48
80824;SHT35;70538;59.122;37.876;2023-06-14T03:11:07;18.28;47.41
80824;SHT35;70538;59.122;37.876;2023-06-14T03:13:35;18.35;47.26
80824;SHT35;70538;59.122;37.876;2023-06-14T03:16:03;18.36;47.14
80824;SHT35;70538;59.122;37.876;2023-06-14T03:18:32;18.40;47.18
80824;SHT35;70538;59.122;37.876;2023-06-14T03:21:03;18.50;47.17
80824;SHT35;70538;59.122;37.876;2023-06-14T03:23:32;18.56;47.21
80824;SHT35;70538;59.122;37.876;2023-06-14T03:26:01;18.66;47.07
80824;SHT35;70538;59.122;37.876;2023-06-14T03:28:29;18.73;46.74
80824;SHT35;70538;59.122;37.876;2023-06-14T03:30:57;18.78;46.70
80824;SHT35;70538;59.122;37.876;2023-06-14T03:33:25;18.80;46.88
80824;SHT35;70538;59.122;37.876;2023-06-14T03:35:54;18.83;47.19
80824;SHT35;70538;59.122;37.876;2023-06-14T03:38:24;18.91;46.94
80824;SHT35;70538;59.122;37.876;2023-06-14T03:40:52;18.94;46.49
80824;SHT35;70538;59.122;37.876;2023-06-14T03:43:21;18.98;46.18
80824;SHT35;70538;59.122;37.876;2023-06-14T03:45:49;19.00;45.96
80824;SHT35;70538;59.122;37.876;2023-06-14T03:48:17;19.00;45.76
80824;SHT35;70538;59.122;37.876;2023-06-14T03:50:46;19.02;45.64
80824;SHT35;70538;59.122;37.876;2023-06-14T03:53:15;19.10;45.51
80824;SHT35;70538;59.122;37.876;2023-06-14T03:55:43;19.14;45.52
80824;SHT35;70538;59.122;37.876;2023-06-14T03:58:15;19.15;45.60
80824;SHT35;70538;59.122;37.876;2023-06-14T04:00:43;19.21;45.46
80824;SHT35;70538;59.122;37.876;2023-06-14T04:03:13;19.25;45.23
80824;SHT35;70538;59.122;37.876;2023-06-14T04:05:42;19.29;45.23
80824;SHT35;70538;59.122;37.876;2023-06-14T04:08:10;19.29;44.99
80824;SHT35;70538;59.122;37.876;2023-06-14T04:10:38;19.35;44.84
80824;SHT35;70538;59.122;37.876;2023-06-14T04:13:07;19.33;44.32
80824;SHT35;70538;59.122;37.876;2023-06-14T04:15:35;19.33;44.36
80824;SHT35;70538;59.122;37.876;2023-06-14T04:18:04;19.35;44.50
80824;SHT35;70538;59.122;37.876;2023-06-14T04:20:33;19.38;44.60
80824;SHT35;70538;59.122;37.876;2023-06-14T04:23:14;19.46;44.56
80824;SHT35;70538;59.122;37.876;2023-06-14T04:25:43;19.57;44.62
80824;SHT35;70538;59.122;37.876;2023-06-14T04:28:13;19.66;45.13
80824;SHT35;70538;59.122;37.876;2023-06-14T04:30:45;19.60;45.62
80824;SHT35;70538;59.122;37.876;2023-06-14T04:33:15;19.63;45.97
80824;SHT35;70538;59.122;37.876;2023-06-14T04:35:43;19.67;46.18
80824;SHT35;70538;59.122;37.876;2023-06-14T04:38:15;19.78;46.19
80824;SHT35;70538;59.122;37.876;2023-06-14T04:40:44;19.93;46.19
80824;SHT35;70538;59.122;37.876;2023-06-14T04:43:13;20.05;46.20
80824;SHT35;70538;59.122;37.876;2023-06-14T04:45:45;20.17;46.37
80824;SHT35;70538;59.122;37.876;2023-06-14T04:48:14;20.14;46.72
80824;SHT35;70538;59.122;37.876;2023-06-14T04:50:43;20.14;46.99
80824;SHT35;70538;59.122;37.876;2023-06-14T04:53:11;20.12;47.19
80824;SHT35;70538;59.122;37.876;2023-06-14T04:56:03;20.10;47.47
80824;SHT35;70538;59.122;37.876;2023-06-14T04:58:31;20.03;47.82
80824;SHT35;70538;59.122;37.876;2023-06-14T05:01:00;19.97;48.13
80824;SHT35;70538;59.122;37.876;2023-06-14T05:03:29;19.87;48.35
80824;SHT35;70538;59.122;37.876;2023-06-14T05:05:58;19.86;48.59
80824;SHT35;70538;59.122;37.876;2023-06-14T05:08:28;19.93;48.43
80824;SHT35;70538;59.122;37.876;2023-06-14T05:10:57;19.97;48.40
80824;SHT35;70538;59.122;37.876;2023-06-14T05:13:26;20.04;48.19
80824;SHT35;70538;59.122;37.876;2023-06-14T05:15:55;20.15;47.94
80824;SHT35;70538;59.122;37.876;2023-06-14T05:18:24;20.12;47.97
80824;SHT35;70538;59.122;37.876;2023-06-14T05:21:16;20.15;47.94
80824;SHT35;70538;59.122;37.876;2023-06-14T05:23:46;20.22;47.75
80824;SHT35;70538;59.122;37.876;2023-06-14T05:26:14;20.36;47.66
80824;SHT35;70538;59.122;37.876;2023-06-14T05:28:43;20.56;47.65
80824;SHT35;70538;59.122;37.876;2023-06-14T05:31:11;20.62;47.52
80824;SHT35;70538;59.122;37.876;2023-06-14T05:33:40;20.67;47.44
80824;SHT35;70538;59.122;37.876;2023-06-14T05:36:09;20.69;47.68
80824;SHT35;70538;59.122;37.876;2023-06-14T05:38:38;20.69;47.99
80824;SHT35;70538;59.122;37.876;2023-06-14T05:41:06;20.76;47.85
80824;SHT35;70538;59.122;37.876;2023-06-14T05:43:34;20.79;47.69
80824;SHT35;70538;59.122;37.876;2023-06-14T05:46:05;20.83;47.64
80824;SHT35;70538;59.122;37.876;2023-06-14T05:48:33;20.94;47.36
80824;SHT35;70538;59.122;37.876;2023-06-14T05:51:01;21.04;47.24
80824;SHT35;70538;59.122;37.876;2023-06-14T05:53:29;21.17;47.00
80824;SHT35;70538;59.122;37.876;2023-06-14T05:55:58;21.34;46.68
80824;SHT35;70538;59.122;37.876;2023-06-14T05:58:26;21.43;46.45
80824;SHT35;70538;59.122;37.876;2023-06-14T06:00:54;21.58;46.14
80824;SHT35;70538;59.122;37.876;2023-06-14T06:03:23;21.77;45.59
80824;SHT35;70538;59.122;37.876;2023-06-14T06:05:51;22.00;45.15
80824;SHT35;70538;59.122;37.876;2023-06-14T06:08:19;22.14;44.90
80824;SHT35;70538;59.122;37.876;2023-06-14T06:10:48;22.30;44.46
80824;SHT35;70538;59.122;37.876;2023-06-14T06:13:17;22.47;44.01
80824;SHT35;70538;59.122;37.876;2023-06-14T06:15:45;22.66;43.58
80824;SHT35;70538;59.122;37.876;2023-06-14T06:18:14;22.80;43.16
80824;SHT35;70538;59.122;37.876;2023-06-14T06:20:42;22.97;42.93
80824;SHT35;70538;59.122;37.876;2023-06-14T06:23:12;23.20;42.36
80824;SHT35;70538;59.122;37.876;2023-06-14T06:25:40;23.47;41.90
80824;SHT35;70538;59.122;37.876;2023-06-14T06:28:09;23.66;40.93
80824;SHT35;70538;59.122;37.876;2023-06-14T06:30:40;23.82;40.67
80824;SHT35;70538;59.122;37.876;2023-06-14T06:33:08;23.99;40.46
80824;SHT35;70538;59.122;37.876;2023-06-14T06:35:36;24.09;40.38
80824;SHT35;70538;59.122;37.876;2023-06-14T06:38:05;24.27;39.74
80824;SHT35;70538;59.122;37.876;2023-06-14T06:40:33;24.40;38.64
80824;SHT35;70538;59.122;37.876;2023-06-14T06:43:02;24.42;38.38
80824;SHT35;70538;59.122;37.876;2023-06-14T06:45:31;24.47;38.34
80824;SHT35;70538;59.122;37.876;2023-06-14T06:47:59;24.57;36.55
80824;SHT35;70538;59.122;37.876;2023-06-14T06:50:28;24.64;36.14
80824;SHT35;70538;59.122;37.876;2023-06-14T06:52:56;24.58;35.79
80824;SHT35;70538;59.122;37.876;2023-06-14T06:55:25;24.57;35.07
80824;SHT35;70538;59.122;37.876;2023-06-14T06:57:53;24.58;34.77
80824;SHT35;70538;59.122;37.876;2023-06-14T07:00:21;24.54;34.71
80824;SHT35;70538;59.122;37.876;2023-06-14T07:02:50;24.52;35.18
80824;SHT35;70538;59.122;37.876;2023-06-14T07:05:19;24.50;34.31
80824;SHT35;70538;59.122;37.876;2023-06-14T07:07:54;24.54;34.52
80824;SHT35;70538;59.122;37.876;2023-06-14T07:10:24;24.57;34.31
80824;SHT35;70538;59.122;37.876;2023-06-14T07:12:53;24.52;33.93
80824;SHT35;70538;59.122;37.876;2023-06-14T07:15:22;24.52;34.73
80824;SHT35;70538;59.122;37.876;2023-06-14T07:17:54;24.58;34.99
80824;SHT35;70538;59.122;37.876;2023-06-14T07:20:27;24.62;34.87
80824;SHT35;70538;59.122;37.876;2023-06-14T07:22:56;24.67;34.75
80824;SHT35;70538;59.122;37.876;2023-06-14T07:25:24;24.72;34.62
80824;SHT35;70538;59.122;37.876;2023-06-14T07:27:53;24.82;34.17
80824;SHT35;70538;59.122;37.876;2023-06-14T07:30:24;24.99;33.54
80824;SHT35;70538;59.122;37.876;2023-06-14T07:32:54;25.13;32.57
80824;SHT35;70538;59.122;37.876;2023-06-14T07:35:23;25.22;31.70
80824;SHT35;70538;59.122;37.876;2023-06-14T07:37:51;25.33;31.35
80824;SHT35;70538;59.122;37.876;2023-06-14T07:40:19;25.44;31.47
80824;SHT35;70538;59.122;37.876;2023-06-14T07:42:48;25.64;31.17
80824;SHT35;70538;59.122;37.876;2023-06-14T07:45:18;25.79;31.12
80824;SHT35;70538;59.122;37.876;2023-06-14T07:47:47;25.86;31.06
80824;SHT35;70538;59.122;37.876;2023-06-14T07:50:15;25.82;30.93
80824;SHT35;70538;59.122;37.876;2023-06-14T07:52:44;25.84;30.70
80824;SHT35;70538;59.122;37.876;2023-06-14T07:55:18;25.95;30.75
80824;SHT35;70538;59.122;37.876;2023-06-14T07:57:46;26.07;29.98
80824;SHT35;70538;59.122;37.876;2023-06-14T08:00:15;26.22;29.88
80824;SHT35;70538;59.122;37.876;2023-06-14T08:02:44;26.30;29.76
80824;SHT35;70538;59.122;37.876;2023-06-14T08:05:13;26.41;29.67
80824;SHT35;70538;59.122;37.876;2023-06-14T08:07:42;26.50;29.35
80824;SHT35;70538;59.122;37.876;2023-06-14T08:10:10;26.61;29.38
80824;SHT35;70538;59.122;37.876;2023-06-14T08:12:39;26.67;29.40
80824;SHT35;70538;59.122;37.876;2023-06-14T08:15:07;26.75;29.43
80824;SHT35;70538;59.122;37.876;2023-06-14T08:17:44;26.88;28.63
80824;SHT35;70538;59.122;37.876;2023-06-14T08:20:23;26.99;28.35
80824;SHT35;70538;59.122;37.876;2023-06-14T08:23:00;27.00;27.18
80824;SHT35;70538;59.122;37.876;2023-06-14T08:25:28;26.98;27.21
80824;SHT35;70538;59.122;37.876;2023-06-14T08:27:56;27.02;26.92
80824;SHT35;70538;59.122;37.876;2023-06-14T08:30:25;27.10;26.41
80824;SHT35;70538;59.122;37.876;2023-06-14T08:32:56;27.12;25.85
80824;SHT35;70538;59.122;37.876;2023-06-14T08:35:43;27.32;26.01
80824;SHT35;70538;59.122;37.876;2023-06-14T08:38:12;27.58;26.29
80824;SHT35;70538;59.122;37.876;2023-06-14T08:40:41;27.81;26.90
80824;SHT35;70538;59.122;37.876;2023-06-14T08:43:13;27.98;27.51
80824;SHT35;70538;59.122;37.876;2023-06-14T08:45:41;28.09;26.21
80824;SHT35;70538;59.122;37.876;2023-06-14T08:48:10;28.12;24.28
80824;SHT35;70538;59.122;37.876;2023-06-14T08:50:40;28.09;24.68
80824;SHT35;70538;59.122;37.876;2023-06-14T08:53:14;28.16;24.33
80824;SHT35;70538;59.122;37.876;2023-06-14T08:55:48;28.06;24.52
80824;SHT35;70538;59.122;37.876;2023-06-14T08:58:17;27.91;24.72
80824;SHT35;70538;59.122;37.876;2023-06-14T09:00:46;27.76;24.53
80824;SHT35;70538;59.122;37.876;2023-06-14T09:03:15;27.70;24.44
80824;SHT35;70538;59.122;37.876;2023-06-14T09:05:46;27.89;24.30
80824;SHT35;70538;59.122;37.876;2023-06-14T09:08:16;28.22;24.01
80824;SHT35;70538;59.122;37.876;2023-06-14T09:10:44;28.36;23.46
80824;SHT35;70538;59.122;37.876;2023-06-14T09:13:13;28.40;23.19
80824;SHT35;70538;59.122;37.876;2023-06-14T09:15:41;28.52;23.42
80824;SHT35;70538;59.122;37.876;2023-06-14T09:18:11;28.61;23.49
80824;SHT35;70538;59.122;37.876;2023-06-14T09:20:40;28.82;23.34
80824;SHT35;70538;59.122;37.876;2023-06-14T09:23:09;29.09;23.41
80824;SHT35;70538;59.122;37.876;2023-06-14T09:25:43;29.37;23.19
80824;SHT35;70538;59.122;37.876;2023-06-14T09:28:14;29.52;22.91
80824;SHT35;70538;59.122;37.876;2023-06-14T09:30:43;29.66;22.93
80824;SHT35;70538;59.122;37.876;2023-06-14T09:33:17;29.81;22.70
80824;SHT35;70538;59.122;37.876;2023-06-14T09:35:52;29.98;22.51
80824;SHT35;70538;59.122;37.876;2023-06-14T09:38:25;30.04;22.02
80824;SHT35;70538;59.122;37.876;2023-06-14T09:40:58;29.88;22.03
80824;SHT35;70538;59.122;37.876;2023-06-14T09:43:27;29.73;22.31
80824;SHT35;70538;59.122;37.876;2023-06-14T09:46:04;29.60;22.30
80824;SHT35;70538;59.122;37.876;2023-06-14T09:48:35;29.56;22.65
80824;SHT35;70538;59.122;37.876;2023-06-14T09:51:05;29.70;22.67
80824;SHT35;70538;59.122;37.876;2023-06-14T09:53:37;29.84;22.71
80824;SHT35;70538;59.122;37.876;2023-06-14T09:56:05;30.00;22.49
80824;SHT35;70538;59.122;37.876;2023-06-14T09:58:37;30.22;22.26
80824;SHT35;70538;59.122;37.876;2023-06-14T10:01:08;30.22;21.58
80824;SHT35;70538;59.122;37.876;2023-06-14T10:03:38;30.11;21.94
80824;SHT35;70538;59.122;37.876;2023-06-14T10:06:28;30.33;22.18
80824;SHT35;70538;59.122;37.876;2023-06-14T10:08:59;30.66;21.86
80824;SHT35;70538;59.122;37.876;2023-06-14T10:11:28;30.47;21.64
80824;SHT35;70538;59.122;37.876;2023-06-14T10:14:02;30.19;21.76
80824;SHT35;70538;59.122;37.876;2023-06-14T10:16:36;30.19;22.09
80824;SHT35;70538;59.122;37.876;2023-06-14T10:19:17;30.33;21.84
80824;SHT35;70538;59.122;37.876;2023-06-14T10:22:01;30.47;21.30
80824;SHT35;70538;59.122;37.876;2023-06-14T10:24:33;30.87;21.35
80824;SHT35;70538;59.122;37.876;2023-06-14T10:27:06;31.39;21.26
80824;SHT35;70538;59.122;37.876;2023-06-14T10:32:22;32.07;21.05
80824;SHT35;70538;59.122;37.876;2023-06-14T10:35:16;32.21;20.60
80824;SHT35;70538;59.122;37.876;2023-06-14T10:37:46;32.38;20.19
80824;SHT35;70538;59.122;37.876;2023-06-14T10:40:30;32.62;20.31
80824;SHT35;70538;59.122;37.876;2023-06-14T10:42:59;32.62;20.51
80824;SHT35;70538;59.122;37.876;2023-06-14T10:45:27;32.54;20.71
80824;SHT35;70538;59.122;37.876;2023-06-14T10:47:57;32.58;20.68
80824;SHT35;70538;59.122;37.876;2023-06-14T10:50:28;32.63;20.51
80824;SHT35;70538;59.122;37.876;2023-06-14T10:52:57;32.71;20.02
80824;SHT35;70538;59.122;37.876;2023-06-14T10:55:27;32.54;19.64
80824;SHT35;70538;59.122;37.876;2023-06-14T10:58:02;32.54;19.86
80824;SHT35;70538;59.122;37.876;2023-06-14T11:00:33;32.68;19.88
80824;SHT35;70538;59.122;37.876;2023-06-14T11:05:51;32.84;19.69
80824;SHT35;70538;59.122;37.876;2023-06-14T11:11:35;33.37;19.27
80824;SHT35;70538;59.122;37.876;2023-06-14T11:14:04;33.47;19.29
80824;SHT35;70538;59.122;37.876;2023-06-14T11:16:33;33.40;19.07
80824;SHT35;70538;59.122;37.876;2023-06-14T11:19:02;33.43;19.10
80824;SHT35;70538;59.122;37.876;2023-06-14T11:21:33;33.64;18.99
80824;SHT35;70538;59.122;37.876;2023-06-14T11:24:02;34.02;18.65
80824;SHT35;70538;59.122;37.876;2023-06-14T11:26:31;34.36;18.49
80824;SHT35;70538;59.122;37.876;2023-06-14T11:29:02;34.80;18.04
80824;SHT35;70538;59.122;37.876;2023-06-14T11:31:31;34.88;17.93
80824;SHT35;70538;59.122;37.876;2023-06-14T11:34:00;35.03;17.92
80824;SHT35;70538;59.122;37.876;2023-06-14T11:36:30;35.36;17.92
80824;SHT35;70538;59.122;37.876;2023-06-14T11:39:04;35.60;17.71
80824;SHT35;70538;59.122;37.876;2023-06-14T11:41:40;35.73;17.44
80824;SHT35;70538;59.122;37.876;2023-06-14T11:44:09;35.84;17.47
80824;SHT35;70538;59.122;37.876;2023-06-14T11:46:38;35.97;17.54
80824;SHT35;70538;59.122;37.876;2023-06-14T11:49:07;35.99;17.22
80824;SHT35;70538;59.122;37.876;2023-06-14T11:51:37;36.02;17.25
80824;SHT35;70538;59.122;37.876;2023-06-14T11:54:06;36.04;16.97
80824;SHT35;70538;59.122;37.876;2023-06-14T11:56:36;36.08;17.07
80824;SHT35;70538;59.122;37.876;2023-06-14T11:59:13;36.52;16.49
80824;SHT35;70538;59.122;37.876;2023-06-14T12:01:43;36.79;16.27
80824;SHT35;70538;59.122;37.876;2023-06-14T12:04:11;37.11;16.11
80824;SHT35;70538;59.122;37.876;2023-06-14T12:06:40;37.22;16.29
80824;SHT35;70538;59.122;37.876;2023-06-14T12:09:09;37.19;15.59
80824;SHT35;70538;59.122;37.876;2023-06-14T12:11:46;37.36;15.28
80824;SHT35;70538;59.122;37.876;2023-06-14T12:14:15;37.49;15.24
80824;SHT35;70538;59.122;37.876;2023-06-14T12:16:44;37.70;15.19
80824;SHT35;70538;59.122;37.876;2023-06-14T12:19:17;37.98;15.13
80824;SHT35;70538;59.122;37.876;2023-06-14T12:21:48;37.86;15.24
80824;SHT35;70538;59.122;37.876;2023-06-14T12:24:17;37.70;15.42
80824;SHT35;70538;59.122;37.876;2023-06-14T12:26:46;37.56;14.84
80824;SHT35;70538;59.122;37.876;2023-06-14T12:29:15;37.25;15.02
80824;SHT35;70538;59.122;37.876;2023-06-14T12:31:43;37.18;15.03
80824;SHT35;70538;59.122;37.876;2023-06-14T12:34:12;37.08;15.17
80824;SHT35;70538;59.122;37.876;2023-06-14T12:36:40;37.11;14.99
80824;SHT35;70538;59.122;37.876;2023-06-14T12:39:10;37.15;14.92
80824;SHT35;70538;59.122;37.876;2023-06-14T12:41:38;37.36;14.90
80824;SHT35;70538;59.122;37.876;2023-06-14T12:44:10;37.69;14.86
80824;SHT35;70538;59.122;37.876;2023-06-14T12:46:40;37.49;15.15
80824;SHT35;70538;59.122;37.876;2023-06-14T12:49:11;36.59;15.43
80824;SHT35;70538;59.122;37.876;2023-06-14T12:51:40;35.43;15.91
80824;SHT35;70538;59.122;37.876;2023-06-14T12:54:08;34.58;16.74
80824;SHT35;70538;59.122;37.876;2023-06-14T12:56:40;34.47;17.21
80824;SHT35;70538;59.122;37.876;2023-06-14T12:59:11;34.77;16.73
80824;SHT35;70538;59.122;37.876;2023-06-14T13:01:42;34.89;16.74
80824;SHT35;70538;59.122;37.876;2023-06-14T13:04:10;35.19;16.61
80824;SHT35;70538;59.122;37.876;2023-06-14T13:06:39;35.51;16.22
80824;SHT35;70538;59.122;37.876;2023-06-14T13:09:07;35.95;16.10
80824;SHT35;70538;59.122;37.876;2023-06-14T13:11:36;36.39;15.99
80824;SHT35;70538;59.122;37.876;2023-06-14T13:14:05;36.73;15.65
80824;SHT35;70538;59.122;37.876;2023-06-14T13:16:53;36.81;15.37
80824;SHT35;70538;59.122;37.876;2023-06-14T13:19:23;36.95;15.33
80824;SHT35;70538;59.122;37.876;2023-06-14T13:21:51;37.10;15.21
80824;SHT35;70538;59.122;37.876;2023-06-14T13:24:20;37.34;14.82
80824;SHT35;70538;59.122;37.876;2023-06-14T13:26:48;37.72;14.73
80824;SHT35;70538;59.122;37.876;2023-06-14T13:29:17;37.84;14.81
80824;SHT35;70538;59.122;37.876;2023-06-14T13:31:45;38.06;14.69
80824;SHT35;70538;59.122;37.876;2023-06-14T13:34:14;37.89;14.60
80824;SHT35;70538;59.122;37.876;2023-06-14T13:36:43;37.69;14.61
80824;SHT35;70538;59.122;37.876;2023-06-14T13:39:11;37.32;14.97
80824;SHT35;70538;59.122;37.876;2023-06-14T13:41:40;37.05;15.04
80824;SHT35;70538;59.122;37.876;2023-06-14T13:44:08;36.83;15.06
80824;SHT35;70538;59.122;37.876;2023-06-14T13:46:47;36.88;15.08
80824;SHT35;70538;59.122;37.876;2023-06-14T13:49:17;37.14;14.89
80824;SHT35;70538;59.122;37.876;2023-06-14T13:51:45;37.10;14.81
80824;SHT35;70538;59.122;37.876;2023-06-14T13:54:14;36.77;14.92
80824;SHT35;70538;59.122;37.876;2023-06-14T13:56:43;36.59;15.26
80824;SHT35;70538;59.122;37.876;2023-06-14T13:59:19;36.87;15.45
80824;SHT35;70538;59.122;37.876;2023-06-14T14:01:48;37.14;15.07
80824;SHT35;70538;59.122;37.876;2023-06-14T14:04:19;37.14;14.87
80824;SHT35;70538;59.122;37.876;2023-06-14T14:06:52;37.04;14.99
80824;SHT35;70538;59.122;37.876;2023-06-14T14:09:21;36.84;15.31
80824;SHT35;70538;59.122;37.876;2023-06-14T14:11:52;37.04;15.13
80824;SHT35;70538;59.122;37.876;2023-06-14T14:14:21;37.11;14.67
80824;SHT35;70538;59.122;37.876;2023-06-14T14:16:52;36.88;14.91
80824;SHT35;70538;59.122;37.876;2023-06-14T14:19:21;36.81;15.03
80824;SHT35;70538;59.122;37.876;2023-06-14T14:21:50;36.87;15.10
80824;SHT35;70538;59.122;37.876;2023-06-14T14:24:18;36.90;15.19
80824;SHT35;70538;59.122;37.876;2023-06-14T14:26:51;36.74;15.20
80824;SHT35;70538;59.122;37.876;2023-06-14T14:29:24;36.86;15.03
80824;SHT35;70538;59.122;37.876;2023-06-14T14:31:55;36.73;15.12
80824;SHT35;70538;59.122;37.876;2023-06-14T14:34:25;36.63;15.23
80824;SHT35;70538;59.122;37.876;2023-06-14T14:36:59;36.80;15.17
80824;SHT35;70538;59.122;37.876;2023-06-14T14:39:28;36.77;15.11
80824;SHT35;70538;59.122;37.876;2023-06-14T14:41:56;36.70;15.23
80824;SHT35;70538;59.122;37.876;2023-06-14T14:44:25;36.70;15.01
80824;SHT35;70538;59.122;37.876;2023-06-14T14:46:53;36.42;15.00
80824;SHT35;70538;59.122;37.876;2023-06-14T14:49:25;35.95;15.40
80824;SHT35;70538;59.122;37.876;2023-06-14T14:51:53;35.88;15.40
80824;SHT35;70538;59.122;37.876;2023-06-14T14:54:22;36.05;15.40
80824;SHT35;70538;59.122;37.876;2023-06-14T14:56:57;36.25;15.35
80824;SHT35;70538;59.122;37.876;2023-06-14T14:59:25;36.24;15.40
80824;SHT35;70538;59.122;37.876;2023-06-14T15:01:54;36.19;15.40
80824;SHT35;70538;59.122;37.876;2023-06-14T15:04:23;36.11;15.50
80824;SHT35;70538;59.122;37.876;2023-06-14T15:06:51;36.29;15.63
80824;SHT35;70538;59.122;37.876;2023-06-14T15:09:20;36.60;15.54
80824;SHT35;70538;59.122;37.876;2023-06-14T15:11:48;36.92;15.03
80824;SHT35;70538;59.122;37.876;2023-06-14T15:14:17;36.62;15.08
80824;SHT35;70538;59.122;37.876;2023-06-14T15:16:45;36.29;15.23
80824;SHT35;70538;59.122;37.876;2023-06-14T15:19:17;36.12;15.30
80824;SHT35;70538;59.122;37.876;2023-06-14T15:21:46;35.82;15.54
80824;SHT35;70538;59.122;37.876;2023-06-14T15:24:14;35.87;15.63
80824;SHT35;70538;59.122;37.876;2023-06-14T15:26:51;36.04;15.44
80824;SHT35;70538;59.122;37.876;2023-06-14T15:29:19;36.31;15.32
80824;SHT35;70538;59.122;37.876;2023-06-14T15:31:48;36.40;14.98
80824;SHT35;70538;59.122;37.876;2023-06-14T15:34:17;36.35;14.64
80824;SHT35;70538;59.122;37.876;2023-06-14T15:36:45;36.29;14.50
80824;SHT35;70538;59.122;37.876;2023-06-14T15:39:18;36.16;14.76
80824;SHT35;70538;59.122;37.876;2023-06-14T15:41:55;35.89;14.72